sensor_id;sensor_type;location;lat;lon;timestamp;pressure;altitude;pressure_sealevel;temperature;humidity
50166;BME280;36071;48.140;11.516;2024-02-26T00:01:32;93790.0;;;5.3;61.4
50166;BME280;36071;48.140;11.516;2024-02-26T00:06:31;93780.0;;;5.3;61.4
50166;BME280;36071;48.140;11.516;2024-02-26T00:11:31;93780.0;;;5.3;61.3
50166;BME280;36071;48.140;11.516;2024-02-26T00:16:32;93780.0;;;5.2;61.1
50166;BME280;36071;48.140;11.516;2024-02-26T00:21:33;93780.0;;;5.1;62.0
50166;BME280;36071;48.140;11.516;2024-02-26T00:26:31;93780.0;;;5.2;61.5
50166;BME280;36071;48.140;11.516;2024-02-26T00:31:31;93770.0;;;5.2;60.7
50166;BME280;36071;48.140;11.516;2024-02-26T00:36:33;93770.0;;;5.3;60.8
50166;BME280;36071;48.140;11.516;2024-02-26T00:41:31;93770.0;;;5.1;60.7
50166;BME280;36071;48.140;11.516;2024-02-26T00:46:31;93770.0;;;5.1;60.9
50166;BME280;36071;48.140;11.516;2024-02-26T00:51:31;93760.0;;;5.1;60.9
50166;BME280;36071;48.140;11.516;2024-02-26T00:56:31;93760.0;;;5.0;60.9
50166;BME280;36071;48.140;11.516;2024-02-26T01:01:31;93760.0;;;4.9;61.9
50166;BME280;36071;48.140;11.516;2024-02-26T01:06:31;93770.0;;;4.8;62.2
50166;BME280;36071;48.140;11.516;2024-02-26T01:11:31;93760.0;;;4.9;61.2
50166;BME280;36071;48.140;11.516;2024-02-26T01:21:31;93740.0;;;4.8;61.6
50166;BME280;36071;48.140;11.516;2024-02-26T01:26:31;93760.0;;;4.9;61.1
50166;BME280;36071;48.140;11.516;2024-02-26T01:36:31;93760.0;;;4.9;61.4
50166;BME280;36071;48.140;11.516;2024-02-26T01:41:32;93750.0;;;4.8;61.2
50166;BME280;36071;48.140;11.516;2024-02-26T01:46:36;93740.0;;;4.7;61.4
50166;BME280;36071;48.140;11.516;2024-02-26T01:51:32;93760.0;;;4.6;61.8
50166;BME280;36071;48.140;11.516;2024-02-26T01:56:31;93760.0;;;4.5;62.1
50166;BME280;36071;48.140;11.516;2024-02-26T02:01:32;93750.0;;;4.6;61.8
50166;BME280;36071;48.140;11.516;2024-02-26T02:06:31;93740.0;;;4.5;62.0
50166;BME280;36071;48.140;11.516;2024-02-26T02:11:32;93740.0;;;4.3;62.7
50166;BME280;36071;48.140;11.516;2024-02-26T02:16:31;93730.0;;;4.4;62.5
50166;BME280;36071;48.140;11.516;2024-02-26T02:21:31;93730.0;;;4.3;63.2
50166;BME280;36071;48.140;11.516;2024-02-26T02:26:37;93730.0;;;4.3;62.7
50166;BME280;36071;48.140;11.516;2024-02-26T02:31:32;93720.0;;;4.3;62.3
50166;BME280;36071;48.140;11.516;2024-02-26T02:36:32;93730.0;;;4.3;62.4
50166;BME280;36071;48.140;11.516;2024-02-26T02:41:31;93730.0;;;4.3;62.2
50166;BME280;36071;48.140;11.516;2024-02-26T02:46:31;93730.0;;;4.2;61.7
50166;BME280;36071;48.140;11.516;2024-02-26T02:51:31;93730.0;;;4.1;61.6
50166;BME280;36071;48.140;11.516;2024-02-26T02:56:31;93730.0;;;4.1;62.3
50166;BME280;36071;48.140;11.516;2024-02-26T03:01:31;93730.0;;;4.1;62.1
50166;BME280;36071;48.140;11.516;2024-02-26T03:06:31;93730.0;;;4.0;62.2
50166;BME280;36071;48.140;11.516;2024-02-26T03:11:31;93720.0;;;4.0;62.5
50166;BME280;36071;48.140;11.516;2024-02-26T03:16:34;93710.0;;;3.8;63.1
50166;BME280;36071;48.140;11.516;2024-02-26T03:21:31;93710.0;;;3.9;63.1
50166;BME280;36071;48.140;11.516;2024-02-26T03:26:31;93720.0;;;3.9;63.4
50166;BME280;36071;48.140;11.516;2024-02-26T03:31:34;93720.0;;;3.9;63.6
50166;BME280;36071;48.140;11.516;2024-02-26T03:36:31;93720.0;;;4.0;63.3
50166;BME280;36071;48.140;11.516;2024-02-26T03:41:31;93730.0;;;3.9;63.0
50166;BME280;36071;48.140;11.516;2024-02-26T03:46:31;93720.0;;;3.8;63.0
50166;BME280;36071;48.140;11.516;2024-02-26T03:56:36;93710.0;;;3.9;63.2
50166;BME280;36071;48.140;11.516;2024-02-26T04:01:31;93710.0;;;3.9;62.9
50166;BME280;36071;48.140;11.516;2024-02-26T04:06:31;93720.0;;;3.7;63.4
50166;BME280;36071;48.140;11.516;2024-02-26T04:11:33;93710.0;;;3.7;63.6
50166;BME280;36071;48.140;11.516;2024-02-26T04:16:31;93700.0;;;3.7;63.7
50166;BME280;36071;48.140;11.516;2024-02-26T04:21:31;93710.0;;;3.8;63.6
50166;BME280;36071;48.140;11.516;2024-02-26T04:26:31;93720.0;;;3.8;63.9
50166;BME280;36071;48.140;11.516;2024-02-26T04:31:31;93720.0;;;3.9;63.3
50166;BME280;36071;48.140;11.516;2024-02-26T04:36:32;93720.0;;;3.9;63.0
50166;BME280;36071;48.140;11.516;2024-02-26T04:41:31;93720.0;;;3.9;62.8
50166;BME280;36071;48.140;11.516;2024-02-26T04:46:31;93710.0;;;3.8;62.4
50166;BME280;36071;48.140;11.516;2024-02-26T04:51:31;93730.0;;;3.8;62.6
50166;BME280;36071;48.140;11.516;2024-02-26T04:56:31;93720.0;;;3.8;62.3
50166;BME280;36071;48.140;11.516;2024-02-26T05:01:31;93720.0;;;3.7;62.2
50166;BME280;36071;48.140;11.516;2024-02-26T05:06:31;93720.0;;;3.8;62.2
50166;BME280;36071;48.140;11.516;2024-02-26T05:11:36;93730.0;;;3.8;62.0
50166;BME280;36071;48.140;11.516;2024-02-26T05:16:32;93720.0;;;3.9;61.6
50166;BME280;36071;48.140;11.516;2024-02-26T05:21:32;93720.0;;;3.9;61.7
50166;BME280;36071;48.140;11.516;2024-02-26T05:26:32;93730.0;;;3.9;61.3
50166;BME280;36071;48.140;11.516;2024-02-26T05:31:32;93730.0;;;4.0;61.3
50166;BME280;36071;48.140;11.516;2024-02-26T05:36:32;93740.0;;;4.0;61.2
50166;BME280;36071;48.140;11.516;2024-02-26T05:41:32;93740.0;;;4.0;61.3
50166;BME280;36071;48.140;11.516;2024-02-26T05:46:32;93740.0;;;4.1;60.9
50166;BME280;36071;48.140;11.516;2024-02-26T06:01:33;93740.0;;;4.1;61.0
50166;BME280;36071;48.140;11.516;2024-02-26T06:06:32;93750.0;;;4.2;61.4
50166;BME280;36071;48.140;11.516;2024-02-26T06:11:32;93750.0;;;4.2;61.5
50166;BME280;36071;48.140;11.516;2024-02-26T06:16:37;93760.0;;;4.3;61.5
50166;BME280;36071;48.140;11.516;2024-02-26T06:21:36;93770.0;;;4.3;61.5
50166;BME280;36071;48.140;11.516;2024-02-26T06:26:32;93780.0;;;4.4;62.1
50166;BME280;36071;48.140;11.516;2024-02-26T06:31:34;93790.0;;;4.4;61.2
50166;BME280;36071;48.140;11.516;2024-02-26T06:36:32;93800.0;;;4.5;60.8
50166;BME280;36071;48.140;11.516;2024-02-26T06:41:32;93790.0;;;4.5;60.6
50166;BME280;36071;48.140;11.516;2024-02-26T06:46:32;93810.0;;;4.6;62.0
50166;BME280;36071;48.140;11.516;2024-02-26T06:51:32;93820.0;;;4.8;61.4
50166;BME280;36071;48.140;11.516;2024-02-26T06:56:33;93820.0;;;4.9;61.8
50166;BME280;36071;48.140;11.516;2024-02-26T07:01:32;93820.0;;;4.9;61.5
50166;BME280;36071;48.140;11.516;2024-02-26T07:06:32;93820.0;;;4.9;60.2
50166;BME280;36071;48.140;11.516;2024-02-26T07:11:37;93820.0;;;4.9;59.0
50166;BME280;36071;48.140;11.516;2024-02-26T07:16:32;93820.0;;;5.0;58.8
50166;BME280;36071;48.140;11.516;2024-02-26T07:21:32;93820.0;;;5.1;58.3
50166;BME280;36071;48.140;11.516;2024-02-26T07:26:33;93830.0;;;5.1;57.8
50166;BME280;36071;48.140;11.516;2024-02-26T07:31:32;93830.0;;;5.3;57.5
50166;BME280;36071;48.140;11.516;2024-02-26T07:36:34;93830.0;;;5.4;58.0
50166;BME280;36071;48.140;11.516;2024-02-26T07:41:32;93830.0;;;5.6;59.4
50166;BME280;36071;48.140;11.516;2024-02-26T07:46:32;93830.0;;;5.8;60.2
50166;BME280;36071;48.140;11.516;2024-02-26T07:51:32;93850.0;;;5.8;61.0
50166;BME280;36071;48.140;11.516;2024-02-26T07:56:37;93860.0;;;5.7;61.6
50166;BME280;36071;48.140;11.516;2024-02-26T08:01:32;93850.0;;;5.7;62.4
50166;BME280;36071;48.140;11.516;2024-02-26T08:06:32;93850.0;;;5.8;64.0
50166;BME280;36071;48.140;11.516;2024-02-26T08:11:37;93850.0;;;5.8;62.8
50166;BME280;36071;48.140;11.516;2024-02-26T08:16:32;93850.0;;;5.9;63.2
50166;BME280;36071;48.140;11.516;2024-02-26T08:21:32;93850.0;;;6.2;61.8
50166;BME280;36071;48.140;11.516;2024-02-26T08:26:32;93840.0;;;6.5;60.8
50166;BME280;36071;48.140;11.516;2024-02-26T08:31:32;93850.0;;;6.8;60.1
50166;BME280;36071;48.140;11.516;2024-02-26T08:36:35;93860.0;;;7.0;58.0
50166;BME280;36071;48.140;11.516;2024-02-26T08:41:32;93870.0;;;7.1;56.8
50166;BME280;36071;48.140;11.516;2024-02-26T08:46:34;93880.0;;;7.3;58.9
50166;BME280;36071;48.140;11.516;2024-02-26T08:51:33;93880.0;;;7.3;58.4
50166;BME280;36071;48.140;11.516;2024-02-26T08:56:34;93870.0;;;7.3;59.0
50166;BME280;36071;48.140;11.516;2024-02-26T09:01:33;93870.0;;;7.3;60.1
50166;BME280;36071;48.140;11.516;2024-02-26T09:06:36;93870.0;;;7.4;58.8
50166;BME280;36071;48.140;11.516;2024-02-26T09:11:33;93870.0;;;7.4;57.1
50166;BME280;36071;48.140;11.516;2024-02-26T09:16:33;93860.0;;;7.5;56.5
50166;BME280;36071;48.140;11.516;2024-02-26T09:21:33;93860.0;;;7.7;56.9
50166;BME280;36071;48.140;11.516;2024-02-26T09:26:33;93870.0;;;7.8;55.6
50166;BME280;36071;48.140;11.516;2024-02-26T09:31:33;93860.0;;;8.1;55.6
50166;BME280;36071;48.140;11.516;2024-02-26T09:36:38;93850.0;;;8.4;54.2
50166;BME280;36071;48.140;11.516;2024-02-26T09:41:33;93860.0;;;9.0;53.3
50166;BME280;36071;48.140;11.516;2024-02-26T09:46:33;93860.0;;;9.7;48.8
50166;BME280;36071;48.140;11.516;2024-02-26T09:51:33;93850.0;;;10.3;48.2
50166;BME280;36071;48.140;11.516;2024-02-26T09:56:33;93850.0;;;10.5;45.7
50166;BME280;36071;48.140;11.516;2024-02-26T10:01:33;93840.0;;;10.6;46.2
50166;BME280;36071;48.140;11.516;2024-02-26T10:06:33;93850.0;;;10.6;44.9
50166;BME280;36071;48.140;11.516;2024-02-26T10:11:33;93850.0;;;10.4;43.9
50166;BME280;36071;48.140;11.516;2024-02-26T10:16:33;93850.0;;;10.1;44.1
50166;BME280;36071;48.140;11.516;2024-02-26T10:21:33;93840.0;;;10.2;45.7
50166;BME280;36071;48.140;11.516;2024-02-26T10:26:35;93840.0;;;10.5;45.9
50166;BME280;36071;48.140;11.516;2024-02-26T10:31:33;93830.0;;;10.4;44.3
50166;BME280;36071;48.140;11.516;2024-02-26T10:36:33;93820.0;;;10.9;47.2
50166;BME280;36071;48.140;11.516;2024-02-26T10:41:33;93840.0;;;11.1;43.5
50166;BME280;36071;48.140;11.516;2024-02-26T10:46:34;93830.0;;;11.3;44.0
50166;BME280;36071;48.140;11.516;2024-02-26T10:51:36;93840.0;;;11.4;44.2
50166;BME280;36071;48.140;11.516;2024-02-26T10:56:34;93840.0;;;11.2;41.4
50166;BME280;36071;48.140;11.516;2024-02-26T11:01:33;93840.0;;;11.3;40.8
50166;BME280;36071;48.140;11.516;2024-02-26T11:06:36;93850.0;;;12.1;40.6
50166;BME280;36071;48.140;11.516;2024-02-26T11:11:34;93850.0;;;13.0;40.3
50166;BME280;36071;48.140;11.516;2024-02-26T11:16:34;93860.0;;;13.9;37.6
50166;BME280;36071;48.140;11.516;2024-02-26T11:21:35;93870.0;;;14.5;35.8
50166;BME280;36071;48.140;11.516;2024-02-26T11:26:33;93870.0;;;14.4;35.9
50166;BME280;36071;48.140;11.516;2024-02-26T11:31:33;93870.0;;;14.2;36.4
50166;BME280;36071;48.140;11.516;2024-02-26T11:36:35;93870.0;;;13.9;35.8
50166;BME280;36071;48.140;11.516;2024-02-26T11:41:33;93860.0;;;13.9;37.0
50166;BME280;36071;48.140;11.516;2024-02-26T11:46:38;93860.0;;;14.0;37.5
50166;BME280;36071;48.140;11.516;2024-02-26T11:51:34;93850.0;;;14.3;36.9
50166;BME280;36071;48.140;11.516;2024-02-26T11:56:34;93850.0;;;14.9;35.1
50166;BME280;36071;48.140;11.516;2024-02-26T12:01:38;93850.0;;;15.7;34.0
50166;BME280;36071;48.140;11.516;2024-02-26T12:06:40;93840.0;;;16.6;33.6
50166;BME280;36071;48.140;11.516;2024-02-26T12:11:36;93840.0;;;17.4;32.6
50166;BME280;36071;48.140;11.516;2024-02-26T12:16:34;93830.0;;;17.8;30.9
50166;BME280;36071;48.140;11.516;2024-02-26T12:21:35;93820.0;;;17.8;30.4
50166;BME280;36071;48.140;11.516;2024-02-26T12:26:34;93840.0;;;17.8;30.9
50166;BME280;36071;48.140;11.516;2024-02-26T12:31:34;93850.0;;;17.7;30.1
50166;BME280;36071;48.140;11.516;2024-02-26T12:36:36;93860.0;;;18.1;30.2
50166;BME280;36071;48.140;11.516;2024-02-26T12:41:34;93860.0;;;18.4;29.7
50166;BME280;36071;48.140;11.516;2024-02-26T12:46:34;93860.0;;;17.7;29.2
50166;BME280;36071;48.140;11.516;2024-02-26T12:51:34;93870.0;;;17.8;28.8
50166;BME280;36071;48.140;11.516;2024-02-26T12:56:34;93880.0;;;18.0;28.4
50166;BME280;36071;48.140;11.516;2024-02-26T13:01:34;93880.0;;;18.4;28.7
50166;BME280;36071;48.140;11.516;2024-02-26T13:06:35;93880.0;;;18.6;29.1
50166;BME280;36071;48.140;11.516;2024-02-26T13:11:34;93880.0;;;18.4;29.6
50166;BME280;36071;48.140;11.516;2024-02-26T13:16:37;93870.0;;;18.6;30.7
50166;BME280;36071;48.140;11.516;2024-02-26T13:21:34;93870.0;;;18.8;29.1
50166;BME280;36071;48.140;11.516;2024-02-26T13:26:34;93870.0;;;18.9;29.9
50166;BME280;36071;48.140;11.516;2024-02-26T13:31:38;93880.0;;;18.9;29.3
50166;BME280;36071;48.140;11.516;2024-02-26T13:36:34;93890.0;;;19.0;28.9
50166;BME280;36071;48.140;11.516;2024-02-26T13:41:34;93890.0;;;18.5;28.8
50166;BME280;36071;48.140;11.516;2024-02-26T13:46:34;93890.0;;;18.2;30.7
50166;BME280;36071;48.140;11.516;2024-02-26T13:51:34;93900.0;;;17.7;29.3
50166;BME280;36071;48.140;11.516;2024-02-26T13:56:34;93900.0;;;17.4;29.9
50166;BME280;36071;48.140;11.516;2024-02-26T14:01:37;93910.0;;;17.2;30.6
50166;BME280;36071;48.140;11.516;2024-02-26T14:06:34;93900.0;;;16.9;30.0
50166;BME280;36071;48.140;11.516;2024-02-26T14:11:34;93910.0;;;16.8;30.2
50166;BME280;36071;48.140;11.516;2024-02-26T14:16:34;93920.0;;;16.5;31.3
50166;BME280;36071;48.140;11.516;2024-02-26T14:21:34;93930.0;;;16.3;30.8
50166;BME280;36071;48.140;11.516;2024-02-26T14:26:34;93930.0;;;16.1;31.5
50166;BME280;36071;48.140;11.516;2024-02-26T14:31:34;93940.0;;;15.9;31.7
50166;BME280;36071;48.140;11.516;2024-02-26T14:36:37;93950.0;;;15.7;32.6
50166;BME280;36071;48.140;11.516;2024-02-26T14:41:34;93950.0;;;15.5;33.0
50166;BME280;36071;48.140;11.516;2024-02-26T14:46:35;93960.0;;;15.3;34.3
50166;BME280;36071;48.140;11.516;2024-02-26T14:51:35;93960.0;;;15.1;35.5
50166;BME280;36071;48.140;11.516;2024-02-26T14:56:34;93970.0;;;14.9;35.8
50166;BME280;36071;48.140;11.516;2024-02-26T15:01:35;93980.0;;;14.8;37.3
50166;BME280;36071;48.140;11.516;2024-02-26T15:06:34;93970.0;;;14.7;39.0
50166;BME280;36071;48.140;11.516;2024-02-26T15:11:37;93990.0;;;14.6;39.9
50166;BME280;36071;48.140;11.516;2024-02-26T15:16:37;94000.0;;;14.4;39.8
50166;BME280;36071;48.140;11.516;2024-02-26T15:21:34;94000.0;;;14.3;40.5
50166;BME280;36071;48.140;11.516;2024-02-26T15:26:34;94000.0;;;14.2;39.7
50166;BME280;36071;48.140;11.516;2024-02-26T15:31:34;94010.0;;;14.1;40.0
50166;BME280;36071;48.140;11.516;2024-02-26T15:36:34;94020.0;;;14.0;40.0
50166;BME280;36071;48.140;11.516;2024-02-26T15:46:38;94030.0;;;13.9;40.7
50166;BME280;36071;48.140;11.516;2024-02-26T15:51:34;94030.0;;;13.8;40.4
50166;BME280;36071;48.140;11.516;2024-02-26T15:56:34;94030.0;;;13.6;40.4
50166;BME280;36071;48.140;11.516;2024-02-26T16:01:34;94030.0;;;13.5;40.5
50166;BME280;36071;48.140;11.516;2024-02-26T16:06:36;94030.0;;;13.4;40.2
50166;BME280;36071;48.140;11.516;2024-02-26T16:11:34;94020.0;;;13.3;40.0
50166;BME280;36071;48.140;11.516;2024-02-26T16:16:34;94030.0;;;13.3;40.3
50166;BME280;36071;48.140;11.516;2024-02-26T16:21:34;94020.0;;;13.2;40.5
50166;BME280;36071;48.140;11.516;2024-02-26T16:26:39;94010.0;;;13.1;41.2
50166;BME280;36071;48.140;11.516;2024-02-26T16:31:36;94010.0;;;13.0;41.7
50166;BME280;36071;48.140;11.516;2024-02-26T16:36:34;94010.0;;;12.9;42.2
50166;BME280;36071;48.140;11.516;2024-02-26T16:41:35;94010.0;;;12.9;42.3
50166;BME280;36071;48.140;11.516;2024-02-26T16:46:40;94000.0;;;12.8;42.9
50166;BME280;36071;48.140;11.516;2024-02-26T16:51:36;94010.0;;;12.8;43.4
50166;BME280;36071;48.140;11.516;2024-02-26T16:56:35;94030.0;;;12.7;43.8
50166;BME280;36071;48.140;11.516;2024-02-26T17:01:35;94030.0;;;12.6;44.5
50166;BME280;36071;48.140;11.516;2024-02-26T17:06:35;94030.0;;;12.5;44.3
50166;BME280;36071;48.140;11.516;2024-02-26T17:11:38;94050.0;;;12.5;45.0
50166;BME280;36071;48.140;11.516;2024-02-26T17:16:37;94050.0;;;12.4;45.9
50166;BME280;36071;48.140;11.516;2024-02-26T17:21:35;94050.0;;;12.4;45.6
50166;BME280;36071;48.140;11.516;2024-02-26T17:26:35;94050.0;;;12.3;46.0
50166;BME280;36071;48.140;11.516;2024-02-26T17:31:35;94060.0;;;12.2;46.6
50166;BME280;36071;48.140;11.516;2024-02-26T17:36:41;94080.0;;;12.1;46.8
50166;BME280;36071;48.140;11.516;2024-02-26T17:41:36;94080.0;;;12.0;47.3
50166;BME280;36071;48.140;11.516;2024-02-26T17:46:37;94080.0;;;11.9;47.7
50166;BME280;36071;48.140;11.516;2024-02-26T17:51:35;94090.0;;;11.9;47.9
50166;BME280;36071;48.140;11.516;2024-02-26T17:56:35;94110.0;;;11.8;48.3
50166;BME280;36071;48.140;11.516;2024-02-26T18:01:37;94120.0;;;11.8;49.7
50166;BME280;36071;48.140;11.516;2024-02-26T18:06:35;94120.0;;;11.8;48.7
50166;BME280;36071;48.140;11.516;2024-02-26T18:11:35;94130.0;;;11.7;49.5
50166;BME280;36071;48.140;11.516;2024-02-26T18:16:40;94120.0;;;11.7;49.6
50166;BME280;36071;48.140;11.516;2024-02-26T18:21:36;94120.0;;;11.6;50.1
50166;BME280;36071;48.140;11.516;2024-02-26T18:26:35;94130.0;;;11.5;50.5
50166;BME280;36071;48.140;11.516;2024-02-26T18:31:35;94140.0;;;11.4;50.9
50166;BME280;36071;48.140;11.516;2024-02-26T18:41:35;94140.0;;;11.3;51.7
50166;BME280;36071;48.140;11.516;2024-02-26T18:46:42;94150.0;;;11.2;51.5
50166;BME280;36071;48.140;11.516;2024-02-26T18:51:35;94150.0;;;11.1;51.7
50166;BME280;36071;48.140;11.516;2024-02-26T18:56:35;94150.0;;;11.1;51.8
50166;BME280;36071;48.140;11.516;2024-02-26T19:01:35;94150.0;;;11.0;51.7
50166;BME280;36071;48.140;11.516;2024-02-26T19:06:38;94150.0;;;11.0;51.9
50166;BME280;36071;48.140;11.516;2024-02-26T19:11:35;94140.0;;;10.9;52.3
50166;BME280;36071;48.140;11.516;2024-02-26T19:16:35;94140.0;;;10.9;52.5
50166;BME280;36071;48.140;11.516;2024-02-26T19:21:38;94150.0;;;10.8;52.5
50166;BME280;36071;48.140;11.516;2024-02-26T19:26:35;94170.0;;;10.8;52.7
50166;BME280;36071;48.140;11.516;2024-02-26T19:31:35;94180.0;;;10.7;52.8
50166;BME280;36071;48.140;11.516;2024-02-26T19:36:35;94180.0;;;10.7;52.7
50166;BME280;36071;48.140;11.516;2024-02-26T19:41:35;94190.0;;;10.6;53.0
50166;BME280;36071;48.140;11.516;2024-02-26T19:46:35;94190.0;;;10.5;53.2
50166;BME280;36071;48.140;11.516;2024-02-26T19:51:35;94190.0;;;10.4;53.8
50166;BME280;36071;48.140;11.516;2024-02-26T19:56:35;94220.0;;;10.4;53.9
50166;BME280;36071;48.140;11.516;2024-02-26T20:01:35;94210.0;;;10.3;53.8
50166;BME280;36071;48.140;11.516;2024-02-26T20:06:37;94220.0;;;10.3;54.2
50166;BME280;36071;48.140;11.516;2024-02-26T20:11:35;94230.0;;;10.2;54.4
50166;BME280;36071;48.140;11.516;2024-02-26T20:16:39;94230.0;;;10.2;54.9
50166;BME280;36071;48.140;11.516;2024-02-26T20:21:35;94220.0;;;10.1;55.0
50166;BME280;36071;48.140;11.516;2024-02-26T20:26:35;94220.0;;;10.1;55.1
50166;BME280;36071;48.140;11.516;2024-02-26T20:31:35;94220.0;;;10.0;55.5
50166;BME280;36071;48.140;11.516;2024-02-26T20:36:35;94220.0;;;9.9;56.1
50166;BME280;36071;48.140;11.516;2024-02-26T20:41:35;94230.0;;;9.8;56.2
50166;BME280;36071;48.140;11.516;2024-02-26T20:46:39;94230.0;;;9.8;56.4
50166;BME280;36071;48.140;11.516;2024-02-26T20:51:36;94230.0;;;9.7;56.7
50166;BME280;36071;48.140;11.516;2024-02-26T20:56:35;94240.0;;;9.7;56.9
50166;BME280;36071;48.140;11.516;2024-02-26T21:01:35;94240.0;;;9.6;56.7
50166;BME280;36071;48.140;11.516;2024-02-26T21:06:35;94250.0;;;9.5;57.0
50166;BME280;36071;48.140;11.516;2024-02-26T21:11:35;94260.0;;;9.4;56.8
50166;BME280;36071;48.140;11.516;2024-02-26T21:16:39;94270.0;;;9.4;56.8
50166;BME280;36071;48.140;11.516;2024-02-26T21:21:35;94280.0;;;9.3;56.7
50166;BME280;36071;48.140;11.516;2024-02-26T21:26:37;94280.0;;;9.3;56.4
50166;BME280;36071;48.140;11.516;2024-02-26T21:31:35;94280.0;;;9.2;56.5
50166;BME280;36071;48.140;11.516;2024-02-26T21:41:37;94260.0;;;9.1;56.1
50166;BME280;36071;48.140;11.516;2024-02-26T21:46:36;94270.0;;;9.1;55.8
50166;BME280;36071;48.140;11.516;2024-02-26T21:51:40;94270.0;;;9.0;56.1
50166;BME280;36071;48.140;11.516;2024-02-26T21:56:39;94280.0;;;8.9;56.3
50166;BME280;36071;48.140;11.516;2024-02-26T22:01:35;94290.0;;;8.8;56.7
50166;BME280;36071;48.140;11.516;2024-02-26T22:06:35;94300.0;;;8.8;56.8
50166;BME280;36071;48.140;11.516;2024-02-26T22:11:35;94300.0;;;8.7;57.1
50166;BME280;36071;48.140;11.516;2024-02-26T22:16:35;94330.0;;;8.6;57.2
50166;BME280;36071;48.140;11.516;2024-02-26T22:21:35;94320.0;;;8.6;57.3
50166;BME280;36071;48.140;11.516;2024-02-26T22:26:37;94320.0;;;8.5;57.8
50166;BME280;36071;48.140;11.516;2024-02-26T22:31:35;94340.0;;;8.5;57.9
50166;BME280;36071;48.140;11.516;2024-02-26T22:36:38;94350.0;;;8.5;58.2
50166;BME280;36071;48.140;11.516;2024-02-26T22:46:35;94350.0;;;8.5;58.7
50166;BME280;36071;48.140;11.516;2024-02-26T22:51:35;94350.0;;;8.4;59.0
50166;BME280;36071;48.140;11.516;2024-02-26T22:56:35;94370.0;;;8.3;59.7
50166;BME280;36071;48.140;11.516;2024-02-26T23:01:35;94380.0;;;8.2;60.0
50166;BME280;36071;48.140;11.516;2024-02-26T23:06:35;94390.0;;;8.2;60.5
50166;BME280;36071;48.140;11.516;2024-02-26T23:11:35;94410.0;;;8.1;60.6
50166;BME280;36071;48.140;11.516;2024-02-26T23:16:35;94390.0;;;8.1;60.7
50166;BME280;36071;48.140;11.516;2024-02-26T23:21:35;94400.0;;;8.1;61.2
50166;BME280;36071;48.140;11.516;2024-02-26T23:26:35;94410.0;;;8.1;61.3
50166;BME280;36071;48.140;11.516;2024-02-26T23:36:36;94400.0;;;8.1;61.2
50166;BME280;36071;48.140;11.516;2024-02-26T23:41:35;94400.0;;;8.0;61.3
50166;BME280;36071;48.140;11.516;2024-02-26T23:46:35;94410.0;;;8.0;61.3
50166;BME280;36071;48.140;11.516;2024-02-26T23:51:35;94430.0;;;8.0;61.6
50166;BME280;36071;48.140;11.516;2024-02-26T23:56:35;94430.0;;;8.0;61.5
